Time;durP1;ratioP1;P1;durP2;ratioP2;P2;SDS_P1;SDS_P2;PMS_P1;PMS_P2;Temp;Humidity;BMP_temperature;BMP_pressure;BME280_temperature;BME280_humidity;BME280_pressure;Samples;Min_cycle;Max_cycle;Signal;HPM_P1;HPM_P2
2023/02/19 00:00:56;;;;;;;1.20;1.10;;;;;;;;;;4990743;28;20026;-64
2023/02/19 00:03:21;;;;;;;0.80;0.70;;;;;;;;;;4973908;28;20530;-64
2023/02/19 00:05:46;;;;;;;1.17;1.00;;;;;;;;;;4991228;28;20486;-64
2023/02/19 00:08:12;;;;;;;0.98;0.90;;;;;;;;;;4991405;28;20030;-64
2023/02/19 00:10:37;;;;;;;1.23;1.13;;;;;;;;;;4973936;28;20038;-64
2023/02/19 00:13:02;;;;;;;0.85;0.80;;;;;;;;;;4990822;28;20128;-64
2023/02/19 00:15:30;;;;;;;0.90;0.80;;;;;;;;;;4990941;28;20037;-64
2023/02/19 00:17:55;;;;;;;1.48;1.38;;;;;;;;;;4991416;28;20154;-59
2023/02/19 00:20:21;;;;;;;1.65;1.17;;;;;;;;;;4991376;28;20046;-61
2023/02/19 00:22:46;;;;;;;1.33;1.00;;;;;;;;;;4991337;28;20113;-62
2023/02/19 00:25:11;;;;;;;0.80;0.80;;;;;;;;;;4990950;28;20038;-62
2023/02/19 00:27:37;;;;;;;0.70;0.70;;;;;;;;;;4991212;28;20050;-62
2023/02/19 00:30:02;;;;;;;0.90;0.90;;;;;;;;;;4956956;28;20073;-62
2023/02/19 00:32:27;;;;;;;0.73;0.73;;;;;;;;;;4990438;28;20096;-62
2023/02/19 00:34:53;;;;;;;1.10;1.00;;;;;;;;;;4993519;28;20026;-61
2023/02/19 00:37:18;;;;;;;1.08;0.80;;;;;;;;;;4993684;28;20529;-60
2023/02/19 00:39:44;;;;;;;0.95;0.88;;;;;;;;;;5005597;28;20033;-60
2023/02/19 00:42:09;;;;;;;0.77;0.77;;;;;;;;;;4995749;28;20061;-60
2023/02/19 00:44:35;;;;;;;0.98;0.88;;;;;;;;;;4995559;28;20489;-60
2023/02/19 00:47:00;;;;;;;1.02;0.90;;;;;;;;;;4994170;28;20038;-60
2023/02/19 00:49:26;;;;;;;1.10;1.00;;;;;;;;;;4976404;28;20058;-65
2023/02/19 00:51:51;;;;;;;0.98;0.98;;;;;;;;;;4976184;28;20406;-65
2023/02/19 00:54:17;;;;;;;1.00;0.90;;;;;;;;;;4976099;28;20042;-64
2023/02/19 00:56:46;;;;;;;0.98;0.90;;;;;;;;;;4995059;28;20096;-64
2023/02/19 00:59:14;;;;;;;1.20;1.10;;;;;;;;;;4980467;28;20034;-64
2023/02/19 01:01:40;;;;;;;2.05;1.05;;;;;;;;;;5013858;28;20477;-64
2023/02/19 01:04:06;;;;;;;1.23;1.13;;;;;;;;;;5013161;28;20383;-64
2023/02/19 01:06:31;;;;;;;1.10;0.95;;;;;;;;;;4995309;28;20069;-65
2023/02/19 01:08:57;;;;;;;1.50;0.88;;;;;;;;;;5012892;28;20436;-64
2023/02/19 01:11:22;;;;;;;1.33;1.23;;;;;;;;;;4995186;28;20038;-64
2023/02/19 01:13:48;;;;;;;1.27;1.17;;;;;;;;;;4995315;28;20080;-64
2023/02/19 01:16:20;;;;;;;1.35;1.00;;;;;;;;;;4995085;28;20089;-64
2023/02/19 01:18:46;;;;;;;2.13;1.27;;;;;;;;;;5013008;28;20472;-64
2023/02/19 01:21:13;;;;;;;1.17;1.13;;;;;;;;;;5013158;28;20030;-64
2023/02/19 01:23:38;;;;;;;1.60;1.50;;;;;;;;;;5013238;28;20049;-64
2023/02/19 01:26:05;;;;;;;1.35;1.25;;;;;;;;;;4995385;28;20147;-64
2023/02/19 01:28:30;;;;;;;1.60;1.50;;;;;;;;;;5013126;28;20144;-64
2023/02/19 01:30:59;;;;;;;1.50;1.40;;;;;;;;;;5013184;28;20540;-64
2023/02/19 01:33:24;;;;;;;1.40;1.30;;;;;;;;;;4976444;28;20038;-64
2023/02/19 01:35:50;;;;;;;1.20;1.10;;;;;;;;;;4992972;28;20050;-65
2023/02/19 01:38:15;;;;;;;1.15;1.05;;;;;;;;;;4976072;28;20105;-65
2023/02/19 01:40:40;;;;;;;1.98;1.55;;;;;;;;;;4992999;28;20031;-64
2023/02/19 01:43:13;;;;;;;1.73;1.40;;;;;;;;;;4975836;28;20027;-65
2023/02/19 01:45:41;;;;;;;1.40;1.30;;;;;;;;;;4958544;28;20041;-66
2023/02/19 01:48:10;;;;;;;1.42;1.33;;;;;;;;;;4975773;28;20124;-66
2023/02/19 01:50:39;;;;;;;1.25;1.05;;;;;;;;;;4975134;28;20057;-65
2023/02/19 01:53:06;;;;;;;1.80;1.70;;;;;;;;;;4975314;28;20129;-66
2023/02/19 01:55:32;;;;;;;1.20;1.10;;;;;;;;;;4992447;28;20140;-66
2023/02/19 01:57:58;;;;;;;2.10;1.30;;;;;;;;;;4993036;28;20030;-65
2023/02/19 02:00:24;;;;;;;3.65;1.70;;;;;;;;;;4974845;28;20042;-65
2023/02/19 02:02:53;;;;;;;1.58;1.48;;;;;;;;;;4975520;28;20058;-65
2023/02/19 02:05:24;;;;;;;2.75;1.70;;;;;;;;;;4974844;28;20040;-65
2023/02/19 02:10:33;;;;;;;1.45;1.27;;;;;;;;;;4992851;28;20043;-65
2023/02/19 02:12:59;;;;;;;1.33;1.23;;;;;;;;;;4992482;28;20030;-65
2023/02/19 02:15:28;;;;;;;1.10;1.10;;;;;;;;;;4992390;28;20034;-65
2023/02/19 02:18:12;;;;;;;1.33;1.23;;;;;;;;;;4974691;28;20485;-65
2023/02/19 02:20:43;;;;;;;1.63;1.23;;;;;;;;;;4992199;28;20568;-65
2023/02/19 02:23:10;;;;;;;1.48;1.38;;;;;;;;;;4992087;28;20030;-65
2023/02/19 02:25:52;;;;;;;1.52;1.42;;;;;;;;;;4958699;28;20466;-65
2023/02/19 02:28:17;;;;;;;;;;;;;;;;;;4975546;28;20045;-65
2023/02/19 02:30:46;;;;;;;1.33;1.23;;;;;;;;;;4991995;28;19914;-65
2023/02/19 02:33:14;;;;;;;1.58;1.30;;;;;;;;;;4992202;28;20392;-65
2023/02/19 02:35:49;;;;;;;1.30;1.25;;;;;;;;;;4994327;28;20034;-66
2023/02/19 02:38:17;;;;;;;1.90;1.80;;;;;;;;;;4993978;28;20033;-65
2023/02/19 02:40:43;;;;;;;1.50;1.40;;;;;;;;;;5002457;28;20065;-65
2023/02/19 02:43:10;;;;;;;1.88;1.75;;;;;;;;;;4973838;28;20034;-64
2023/02/19 02:45:37;;;;;;;2.10;1.95;;;;;;;;;;4974428;28;20030;-64
2023/02/19 02:48:08;;;;;;;1.83;1.73;;;;;;;;;;4991168;28;20042;-65
2023/02/19 02:50:48;;;;;;;2.10;2.00;;;;;;;;;;4970927;28;20051;-65
2023/02/19 02:56:01;;;;;;;2.10;2.00;;;;;;;;;;4958400;28;20118;-65
2023/02/19 02:58:29;;;;;;;1.85;1.75;;;;;;;;;;4970681;28;20041;-65
2023/02/19 03:04:07;;;;;;;1.83;1.73;;;;;;;;;;4987328;28;20041;-65
2023/02/19 03:06:34;;;;;;;2.08;1.98;;;;;;;;;;4986035;28;20031;-65
2023/02/19 03:09:21;;;;;;;2.05;1.95;;;;;;;;;;4970328;28;20038;-65
2023/02/19 03:20:12;;;;;;;2.00;1.90;;;;;;;;;;4987236;28;20466;-65
2023/02/19 03:22:39;;;;;;;2.80;1.75;;;;;;;;;;4989789;28;20037;-65
2023/02/19 03:27:53;;;;;;;1.67;1.58;;;;;;;;;;4976455;28;20039;-65
2023/02/19 03:30:22;;;;;;;1.90;1.80;;;;;;;;;;4990350;28;20433;-65
2023/02/19 03:32:50;;;;;;;2.03;1.80;;;;;;;;;;4989601;28;20073;-64
2023/02/19 03:35:17;;;;;;;1.95;1.85;;;;;;;;;;4989693;28;20027;-64
2023/02/19 03:37:45;;;;;;;1.60;1.50;;;;;;;;;;4989826;28;20030;-64
2023/02/19 03:40:12;;;;;;;1.83;1.73;;;;;;;;;;4989865;28;20037;-65
2023/02/19 03:42:58;;;;;;;2.22;1.88;;;;;;;;;;4989993;28;20034;-60
2023/02/19 03:45:37;;;;;;;1.80;1.70;;;;;;;;;;4990192;28;20486;-60
2023/02/19 03:48:11;;;;;;;2.13;1.90;;;;;;;;;;4990223;28;20120;-61
2023/02/19 03:50:43;;;;;;;1.48;1.38;;;;;;;;;;4993157;28;20042;-60
2023/02/19 03:53:09;;;;;;;2.00;1.90;;;;;;;;;;4993264;28;20042;-60
2023/02/19 03:55:43;;;;;;;1.60;1.50;;;;;;;;;;4986699;28;20088;-60
2023/02/19 03:58:18;;;;;;;1.80;1.70;;;;;;;;;;4973896;28;20121;-60
2023/02/19 04:00:50;;;;;;;1.63;1.52;;;;;;;;;;4957519;28;20540;-60
2023/02/19 04:03:35;;;;;;;2.00;1.90;;;;;;;;;;4973626;28;20423;-60
2023/02/19 04:06:02;;;;;;;2.33;2.13;;;;;;;;;;4998113;28;20064;-60
2023/02/19 04:08:28;;;;;;;3.08;2.78;;;;;;;;;;5012029;28;20030;-60
2023/02/19 04:10:59;;;;;;;2.72;2.53;;;;;;;;;;4981494;28;20405;-60
2023/02/19 04:13:33;;;;;;;2.35;2.05;;;;;;;;;;4977493;28;20062;-60
2023/02/19 04:16:01;;;;;;;2.50;2.20;;;;;;;;;;4994945;28;20041;-60
2023/02/19 04:18:29;;;;;;;1.92;1.67;;;;;;;;;;4994929;28;20069;-60
2023/02/19 04:20:55;;;;;;;2.10;1.90;;;;;;;;;;4994358;28;20045;-60
2023/02/19 04:23:22;;;;;;;2.53;1.85;;;;;;;;;;4993908;28;20141;-60
2023/02/19 04:25:49;;;;;;;2.22;1.70;;;;;;;;;;4976767;28;20030;-60
2023/02/19 04:28:16;;;;;;;1.92;1.73;;;;;;;;;;4994058;28;20041;-60
2023/02/19 04:30:42;;;;;;;1.95;1.50;;;;;;;;;;4993968;28;20034;-59
2023/02/19 04:33:07;;;;;;;1.90;1.80;;;;;;;;;;4994290;28;20038;-60
2023/02/19 04:35:32;;;;;;;1.20;1.10;;;;;;;;;;4976656;28;20061;-60
2023/02/19 04:37:58;;;;;;;1.52;1.23;;;;;;;;;;4994241;28;20030;-60
2023/02/19 04:40:23;;;;;;;1.40;1.30;;;;;;;;;;4977191;28;20089;-60
2023/02/19 04:42:49;;;;;;;1.27;1.17;;;;;;;;;;4994463;28;20038;-60
2023/02/19 04:45:15;;;;;;;1.08;1.00;;;;;;;;;;4994411;28;20066;-60
2023/02/19 04:47:40;;;;;;;1.15;1.02;;;;;;;;;;4976619;28;20451;-60
2023/02/19 04:50:06;;;;;;;1.05;0.95;;;;;;;;;;4994455;28;20489;-60
2023/02/19 04:52:32;;;;;;;2.10;1.05;;;;;;;;;;4994575;28;20501;-60
2023/02/19 04:54:57;;;;;;;1.15;1.10;;;;;;;;;;4994252;28;20030;-61
2023/02/19 04:57:22;;;;;;;1.05;0.93;;;;;;;;;;4994290;28;20053;-60
2023/02/19 04:59:48;;;;;;;0.90;0.90;;;;;;;;;;5011055;28;20033;-61
2023/02/19 05:02:13;;;;;;;1.52;0.90;;;;;;;;;;5013075;28;20386;-62
2023/02/19 05:04:39;;;;;;;1.17;0.80;;;;;;;;;;5013874;28;20034;-62
2023/02/19 05:07:04;;;;;;;0.80;0.80;;;;;;;;;;5013984;28;20037;-62
2023/02/19 05:09:30;;;;;;;0.80;0.80;;;;;;;;;;5014034;28;20029;-61
2023/02/19 05:11:55;;;;;;;0.80;0.80;;;;;;;;;;5013448;28;20069;-60
2023/02/19 05:14:21;;;;;;;0.73;0.73;;;;;;;;;;5013730;28;20030;-60
2023/02/19 05:16:46;;;;;;;0.82;0.82;;;;;;;;;;5013617;28;20481;-60
2023/02/19 05:19:11;;;;;;;0.80;0.80;;;;;;;;;;5013540;28;20026;-60
2023/02/19 05:21:38;;;;;;;1.08;1.08;;;;;;;;;;5013459;28;20644;-60
2023/02/19 05:24:04;;;;;;;0.90;0.82;;;;;;;;;;5013585;28;20030;-61
2023/02/19 05:26:30;;;;;;;0.80;0.80;;;;;;;;;;5013870;28;20029;-60
2023/02/19 05:28:56;;;;;;;0.80;0.80;;;;;;;;;;4996274;28;20069;-60
2023/02/19 05:31:21;;;;;;;0.80;0.80;;;;;;;;;;4996018;28;20497;-61
2023/02/19 05:33:49;;;;;;;0.77;0.77;;;;;;;;;;5013191;28;20034;-60
2023/02/19 05:36:15;;;;;;;0.80;0.80;;;;;;;;;;5013244;28;20052;-60
2023/02/19 05:38:41;;;;;;;0.88;0.88;;;;;;;;;;5013235;28;20025;-60
2023/02/19 05:41:10;;;;;;;1.00;1.00;;;;;;;;;;5013054;28;20042;-64
2023/02/19 05:43:36;;;;;;;1.05;1.05;;;;;;;;;;4995383;28;20034;-61
2023/02/19 05:46:01;;;;;;;1.35;1.25;;;;;;;;;;5011898;28;20038;-59
2023/02/19 05:48:26;;;;;;;1.05;1.05;;;;;;;;;;5012404;28;20113;-60
2023/02/19 05:50:52;;;;;;;1.45;1.35;;;;;;;;;;5012556;28;20041;-61
2023/02/19 05:53:17;;;;;;;1.55;1.45;;;;;;;;;;5012104;28;20109;-61
2023/02/19 05:55:42;;;;;;;1.95;1.83;;;;;;;;;;5012123;28;20426;-61
2023/02/19 05:58:08;;;;;;;2.35;2.22;;;;;;;;;;5009312;28;20030;-61
2023/02/19 06:00:33;;;;;;;2.67;2.30;;;;;;;;;;4992404;28;20061;-60
2023/02/19 06:02:59;;;;;;;2.85;2.65;;;;;;;;;;4994086;28;20027;-59
2023/02/19 06:05:24;;;;;;;3.65;3.35;;;;;;;;;;4994986;28;20045;-59
2023/02/19 06:07:49;;;;;;;3.63;3.33;;;;;;;;;;4977624;28;20070;-58
2023/02/19 06:10:15;;;;;;;3.42;3.17;;;;;;;;;;4977599;28;20359;-58
2023/02/19 06:12:40;;;;;;;4.43;4.10;;;;;;;;;;4994681;28;20050;-58
2023/02/19 06:15:06;;;;;;;5.05;4.25;;;;;;;;;;4994743;28;20030;-58
2023/02/19 06:17:32;;;;;;;5.80;4.95;;;;;;;;;;4993874;28;20347;-59
2023/02/19 06:19:58;;;;;;;4.05;3.67;;;;;;;;;;4993661;28;20088;-59
2023/02/19 06:22:23;;;;;;;4.88;4.35;;;;;;;;;;4994086;28;20101;-59
2023/02/19 06:24:49;;;;;;;2.80;2.50;;;;;;;;;;4992293;28;20034;-58
2023/02/19 06:27:14;;;;;;;2.72;2.42;;;;;;;;;;5003628;28;20033;-58
2023/02/19 06:29:39;;;;;;;2.47;2.38;;;;;;;;;;4996916;28;20041;-58
2023/02/19 06:32:05;;;;;;;2.90;2.65;;;;;;;;;;4996566;28;20041;-58
2023/02/19 06:34:30;;;;;;;2.25;2.15;;;;;;;;;;4999541;28;20124;-58
2023/02/19 06:36:56;;;;;;;3.22;2.20;;;;;;;;;;4991958;28;20100;-58
2023/02/19 06:39:21;;;;;;;2.80;2.60;;;;;;;;;;4991522;28;20038;-59
2023/02/19 06:41:47;;;;;;;2.72;2.35;;;;;;;;;;4972263;28;20041;-58
2023/02/19 06:44:12;;;;;;;3.05;2.35;;;;;;;;;;4990363;28;20662;-58
2023/02/19 06:46:38;;;;;;;3.05;2.85;;;;;;;;;;4988977;28;20053;-58
2023/02/19 06:49:03;;;;;;;3.25;3.00;;;;;;;;;;4989141;28;20022;-58
2023/02/19 06:51:31;;;;;;;3.20;3.00;;;;;;;;;;4988013;28;20042;-58
2023/02/19 06:53:57;;;;;;;3.97;3.65;;;;;;;;;;4971582;28;20035;-58
2023/02/19 06:56:30;;;;;;;3.78;3.47;;;;;;;;;;4990508;28;20129;-59
2023/02/19 06:58:58;;;;;;;3.90;3.45;;;;;;;;;;4990848;28;20632;-59
2023/02/19 07:01:24;;;;;;;3.65;3.35;;;;;;;;;;4990655;28;20030;-59
2023/02/19 07:03:51;;;;;;;3.80;3.50;;;;;;;;;;4972787;28;20028;-58
2023/02/19 07:06:16;;;;;;;4.22;3.83;;;;;;;;;;4990779;28;20425;-59
2023/02/19 07:08:41;;;;;;;3.83;3.42;;;;;;;;;;4990148;28;20042;-59
2023/02/19 07:11:07;;;;;;;4.43;4.03;;;;;;;;;;4990602;28;20033;-58
2023/02/19 07:13:32;;;;;;;4.43;3.95;;;;;;;;;;4989877;28;20803;-59
2023/02/19 07:15:59;;;;;;;4.47;3.90;;;;;;;;;;4990527;28;20026;-59
2023/02/19 07:18:24;;;;;;;4.35;3.85;;;;;;;;;;4972892;28;20366;-59
2023/02/19 07:20:50;;;;;;;4.63;4.05;;;;;;;;;;4989872;28;20026;-59
2023/02/19 07:23:15;;;;;;;3.92;3.60;;;;;;;;;;4990520;28;20093;-59
2023/02/19 07:25:40;;;;;;;3.88;3.30;;;;;;;;;;4990621;28;20093;-58
2023/02/19 07:28:06;;;;;;;4.13;3.72;;;;;;;;;;4990488;28;20030;-59
2023/02/19 07:30:31;;;;;;;3.95;3.58;;;;;;;;;;4988914;28;20469;-59
2023/02/19 07:32:57;;;;;;;3.20;2.90;;;;;;;;;;4990640;28;20045;-59
2023/02/19 07:35:22;;;;;;;3.17;2.97;;;;;;;;;;4990718;28;20109;-59
2023/02/19 07:37:47;;;;;;;3.08;2.88;;;;;;;;;;4991955;28;20050;-59
2023/02/19 07:40:13;;;;;;;3.38;3.08;;;;;;;;;;4991672;28;20026;-59
2023/02/19 07:42:38;;;;;;;2.72;2.53;;;;;;;;;;4992065;28;20540;-59
2023/02/19 07:45:04;;;;;;;2.92;2.72;;;;;;;;;;4977787;28;20068;-59
2023/02/19 07:47:29;;;;;;;2.72;2.53;;;;;;;;;;4994589;28;20134;-59
2023/02/19 07:49:57;;;;;;;2.53;2.33;;;;;;;;;;4994936;28;20131;-59
2023/02/19 07:52:22;;;;;;;2.92;2.72;;;;;;;;;;4994475;28;20049;-59
2023/02/19 07:54:49;;;;;;;2.72;2.53;;;;;;;;;;4994132;28;20026;-59
2023/02/19 07:57:14;;;;;;;2.92;2.63;;;;;;;;;;4996205;28;20042;-59
2023/02/19 07:59:43;;;;;;;2.17;1.98;;;;;;;;;;4996447;28;20077;-59
2023/02/19 08:05:05;;;;;;;2.08;1.98;;;;;;;;;;4995636;28;20038;-59
2023/02/19 08:07:32;;;;;;;1.90;1.65;;;;;;;;;;4978188;28;20034;-59
2023/02/19 08:13:18;;;;;;;1.88;1.77;;;;;;;;;;4995906;28;20023;-59
2023/02/19 08:15:29;;;;;;;2.03;1.92;;;;;;;;;;4994673;28;20497;-59
2023/02/19 08:17:55;;;;;;;1.98;1.88;;;;;;;;;;4993989;28;20069;-59
2023/02/19 08:20:20;;;;;;;2.65;2.45;;;;;;;;;;4994326;28;20121;-59
2023/02/19 08:22:46;;;;;;;2.83;2.63;;;;;;;;;;4993492;28;20093;-65
2023/02/19 08:25:11;;;;;;;2.63;2.42;;;;;;;;;;4993305;28;20042;-66
2023/02/19 08:27:36;;;;;;;2.95;2.75;;;;;;;;;;4976839;28;20033;-59
2023/02/19 08:30:03;;;;;;;3.13;2.72;;;;;;;;;;4993989;28;20109;-59
2023/02/19 08:32:31;;;;;;;2.38;2.13;;;;;;;;;;4993510;28;20038;-59
2023/02/19 08:34:56;;;;;;;3.13;2.92;;;;;;;;;;4993248;28;20458;-65
2023/02/19 08:37:21;;;;;;;2.33;2.05;;;;;;;;;;4976164;28;20035;-59
2023/02/19 08:39:47;;;;;;;2.13;2.03;;;;;;;;;;4992827;28;20014;-59
2023/02/19 08:42:12;;;;;;;1.90;1.80;;;;;;;;;;4975929;28;20034;-59
2023/02/19 08:44:41;;;;;;;3.17;2.95;;;;;;;;;;4997744;28;20018;-59
2023/02/19 08:47:06;;;;;;;1.85;1.75;;;;;;;;;;4995142;28;20030;-58
2023/02/19 08:49:32;;;;;;;1.60;1.50;;;;;;;;;;5009616;28;20137;-59
2023/02/19 08:51:57;;;;;;;1.00;1.00;;;;;;;;;;4975187;28;20052;-59
2023/02/19 08:54:22;;;;;;;1.02;0.93;;;;;;;;;;4991105;28;20088;-59
2023/02/19 08:56:48;;;;;;;1.45;1.35;;;;;;;;;;4992643;28;20072;-59
2023/02/19 08:59:13;;;;;;;1.85;1.73;;;;;;;;;;4975047;28;20033;-59
2023/02/19 09:01:38;;;;;;;1.08;1.08;;;;;;;;;;4993032;28;20386;-59
2023/02/19 09:04:05;;;;;;;1.77;1.55;;;;;;;;;;4975183;28;20030;-59
2023/02/19 09:06:30;;;;;;;1.65;1.55;;;;;;;;;;4992829;28;20026;-59
2023/02/19 09:08:55;;;;;;;1.95;1.50;;;;;;;;;;4993922;28;20457;-59
2023/02/19 09:11:21;;;;;;;1.63;1.52;;;;;;;;;;4994054;28;20030;-59
2023/02/19 09:13:46;;;;;;;2.90;2.10;;;;;;;;;;4993583;28;20092;-59
2023/02/19 09:16:11;;;;;;;3.05;2.13;;;;;;;;;;4992737;28;20034;-59
2023/02/19 09:18:37;;;;;;;1.80;1.00;;;;;;;;;;4975418;28;20038;-60
2023/02/19 09:21:03;;;;;;;2.85;2.20;;;;;;;;;;4990392;28;20106;-60
2023/02/19 09:23:30;;;;;;;4.18;2.70;;;;;;;;;;4992783;28;20041;-60
2023/02/19 09:25:59;;;;;;;5.20;2.50;;;;;;;;;;4992854;28;20117;-60
2023/02/19 09:28:25;;;;;;;3.13;2.80;;;;;;;;;;4992911;28;20113;-60
2023/02/19 09:30:50;;;;;;;2.00;1.77;;;;;;;;;;4992796;28;20114;-59
2023/02/19 09:33:16;;;;;;;3.95;2.80;;;;;;;;;;4992059;28;20030;-58
2023/02/19 09:35:41;;;;;;;3.70;2.22;;;;;;;;;;4992500;28;20084;-58
2023/02/19 09:38:09;;;;;;;1.65;1.55;;;;;;;;;;4992415;28;20455;-58
2023/02/19 09:40:35;;;;;;;7.53;4.72;;;;;;;;;;4992555;28;20117;-59
2023/02/19 09:43:01;;;;;;;9.00;4.38;;;;;;;;;;4992183;28;20109;-59
2023/02/19 09:45:27;;;;;;;13.48;8.63;;;;;;;;;;4974217;28;20034;-59
2023/02/19 09:47:53;;;;;;;2.53;2.33;;;;;;;;;;4992592;28;20077;-65
2023/02/19 09:50:20;;;;;;;4.10;2.88;;;;;;;;;;4992173;28;20041;-65
2023/02/19 09:52:48;;;;;;;2.05;1.60;;;;;;;;;;4992245;28;20032;-65
2023/02/19 09:55:28;;;;;;;2.38;2.17;;;;;;;;;;4992627;28;20034;-65
2023/02/19 09:57:53;;;;;;;4.63;3.08;;;;;;;;;;4991772;28;20019;-65
2023/02/19 10:00:21;;;;;;;4.15;3.15;;;;;;;;;;4991691;28;20797;-65
2023/02/19 10:02:49;;;;;;;2.90;2.53;;;;;;;;;;4974319;28;20117;-65
2023/02/19 10:05:15;;;;;;;33.78;16.92;;;;;;;;;;4974663;28;20028;-65
2023/02/19 10:07:42;;;;;;;12.10;7.60;;;;;;;;;;4991713;28;20053;-65
2023/02/19 10:10:13;;;;;;;35.53;21.50;;;;;;;;;;4991399;28;20034;-65
2023/02/19 10:12:41;;;;;;;9.00;6.65;;;;;;;;;;4992493;28;20122;-65
2023/02/19 10:15:21;;;;;;;6.13;5.25;;;;;;;;;;4990938;28;20026;-65
2023/02/19 10:17:46;;;;;;;2.35;1.70;;;;;;;;;;4994557;28;20092;-65
2023/02/19 10:20:13;;;;;;;8.60;7.60;;;;;;;;;;4995136;28;20031;-65
2023/02/19 10:22:39;;;;;;;7.93;6.05;;;;;;;;;;4995930;28;20069;-65
2023/02/19 10:25:04;;;;;;;2.83;2.63;;;;;;;;;;4995470;28;20061;-65
2023/02/19 10:27:30;;;;;;;1.20;1.13;;;;;;;;;;4994939;28;20038;-65
2023/02/19 10:29:56;;;;;;;3.33;3.08;;;;;;;;;;4976193;28;20027;-65
2023/02/19 10:32:23;;;;;;;3.60;3.30;;;;;;;;;;4975749;28;20042;-65
2023/02/19 10:35:07;;;;;;;2.75;1.77;;;;;;;;;;4985373;28;20030;-59
2023/02/19 10:37:32;;;;;;;15.55;4.82;;;;;;;;;;4993362;28;20062;-65
2023/02/19 10:39:58;;;;;;;5.03;3.13;;;;;;;;;;4994637;28;20015;-65
2023/02/19 10:42:24;;;;;;;1.75;1.65;;;;;;;;;;4994411;28;20113;-65
2023/02/19 10:44:57;;;;;;;2.30;2.10;;;;;;;;;;4993253;28;20497;-65
2023/02/19 10:47:24;;;;;;;1.58;1.48;;;;;;;;;;4977084;28;20065;-65
2023/02/19 10:49:50;;;;;;;4.35;3.78;;;;;;;;;;4994857;28;20030;-65
2023/02/19 10:52:20;;;;;;;9.32;3.85;;;;;;;;;;4993469;28;20041;-65
2023/02/19 10:54:48;;;;;;;4.20;2.63;;;;;;;;;;4997046;28;20108;-65
2023/02/19 10:57:14;;;;;;;5.20;2.90;;;;;;;;;;4994739;28;20042;-65
2023/02/19 10:59:47;;;;;;;5.40;2.92;;;;;;;;;;4977819;28;20358;-65
2023/02/19 11:02:17;;;;;;;1.65;1.55;;;;;;;;;;4995040;28;20101;-65
2023/02/19 11:05:04;;;;;;;1.50;1.40;;;;;;;;;;4993226;28;20030;-65
2023/02/19 11:07:29;;;;;;;2.58;2.00;;;;;;;;;;4984216;28;20049;-65
2023/02/19 11:09:55;;;;;;;4.10;1.90;;;;;;;;;;4994429;28;20027;-65
2023/02/19 11:12:25;;;;;;;3.83;1.83;;;;;;;;;;4994379;28;20470;-65
2023/02/19 11:14:51;;;;;;;6.32;4.07;;;;;;;;;;4994700;28;20030;-65
2023/02/19 11:17:21;;;;;;;2.97;2.75;;;;;;;;;;4994593;28;20496;-65
2023/02/19 11:19:50;;;;;;;12.55;5.10;;;;;;;;;;4994322;28;20035;-65
2023/02/19 11:22:18;;;;;;;14.55;5.05;;;;;;;;;;4994435;28;20451;-65
2023/02/19 11:24:47;;;;;;;10.15;4.38;;;;;;;;;;4994548;28;20034;-65
2023/02/19 11:27:19;;;;;;;2.60;2.40;;;;;;;;;;4994272;28;20374;-65
2023/02/19 11:29:45;;;;;;;10.77;4.93;;;;;;;;;;4994226;28;20097;-65
2023/02/19 11:32:19;;;;;;;7.05;4.45;;;;;;;;;;4994306;28;20067;-66
2023/02/19 11:34:45;;;;;;;3.95;3.53;;;;;;;;;;4994449;28;20049;-66
2023/02/19 11:37:12;;;;;;;2.90;2.50;;;;;;;;;;4994082;28;20031;-65
2023/02/19 11:39:38;;;;;;;5.22;3.30;;;;;;;;;;4994441;28;20026;-65
2023/02/19 11:42:14;;;;;;;2.80;2.60;;;;;;;;;;4995580;28;20379;-59
2023/02/19 11:44:42;;;;;;;2.90;2.10;;;;;;;;;;4996286;28;20359;-59
2023/02/19 11:47:22;;;;;;;3.40;2.35;;;;;;;;;;4994620;28;20034;-60
2023/02/19 11:50:06;;;;;;;3.25;2.40;;;;;;;;;;4991755;28;20041;-65
2023/02/19 11:52:44;;;;;;;1.80;1.70;;;;;;;;;;4994057;28;20042;-65
2023/02/19 11:55:09;;;;;;;3.85;2.55;;;;;;;;;;4994244;28;20422;-65
2023/02/19 11:57:35;;;;;;;3.20;2.30;;;;;;;;;;4994177;28;20035;-66
2023/02/19 12:00:12;;;;;;;2.83;2.10;;;;;;;;;;4995166;28;20181;-66
2023/02/19 12:02:43;;;;;;;2.53;1.90;;;;;;;;;;4994456;28;20035;-66
2023/02/19 12:05:08;;;;;;;6.22;2.75;;;;;;;;;;4976622;28;20054;-66
2023/02/19 12:07:57;;;;;;;5.22;2.50;;;;;;;;;;4976163;28;20470;-66
2023/02/19 12:10:41;;;;;;;3.95;3.28;;;;;;;;;;4972285;28;20431;-66
2023/02/19 12:13:12;;;;;;;4.70;2.38;;;;;;;;;;4994146;28;20034;-66
2023/02/19 12:15:40;;;;;;;5.00;2.08;;;;;;;;;;4976444;28;20038;-66
2023/02/19 12:18:06;;;;;;;6.32;2.75;;;;;;;;;;4994263;28;20033;-66
2023/02/19 12:20:40;;;;;;;2.47;1.98;;;;;;;;;;4993776;28;20474;-66
2023/02/19 12:23:05;;;;;;;3.28;2.78;;;;;;;;;;4994578;28;20366;-65
2023/02/19 12:25:56;;;;;;;8.82;3.50;;;;;;;;;;4994019;28;20026;-65
2023/02/19 12:28:30;;;;;;;5.50;2.47;;;;;;;;;;4993607;28;20099;-65
2023/02/19 12:31:01;;;;;;;5.25;2.08;;;;;;;;;;4997183;28;20033;-65
2023/02/19 12:33:33;;;;;;;1.80;1.70;;;;;;;;;;4997419;28;20030;-65
2023/02/19 12:36:13;;;;;;;2.83;1.52;;;;;;;;;;4997723;28;20027;-65
2023/02/19 12:39:03;;;;;;;2.85;1.80;;;;;;;;;;4997755;28;20085;-66
2023/02/19 12:41:34;;;;;;;4.00;2.08;;;;;;;;;;4997141;28;20049;-59
2023/02/19 12:44:02;;;;;;;2.58;1.90;;;;;;;;;;4979631;28;20375;-60
2023/02/19 12:46:50;;;;;;;2.63;1.80;;;;;;;;;;4997046;28;20026;-59
2023/02/19 12:49:27;;;;;;;3.88;2.00;;;;;;;;;;4974492;28;20125;-59
2023/02/19 12:52:12;;;;;;;2.15;1.70;;;;;;;;;;4996902;28;20097;-59
2023/02/19 12:54:42;;;;;;;1.85;1.75;;;;;;;;;;4986308;28;20100;-60
2023/02/19 12:57:16;;;;;;;2.00;1.70;;;;;;;;;;4997475;28;20022;-60
2023/02/19 12:59:54;;;;;;;2.58;1.85;;;;;;;;;;4996891;28;20121;-59
2023/02/19 13:02:27;;;;;;;1.70;1.60;;;;;;;;;;4996773;28;20031;-60
2023/02/19 13:05:00;;;;;;;2.50;1.70;;;;;;;;;;4997088;28;20035;-59
2023/02/19 13:07:43;;;;;;;2.22;2.03;;;;;;;;;;4996937;28;20085;-60
2023/02/19 13:10:11;;;;;;;2.10;1.80;;;;;;;;;;4979030;28;20041;-59
2023/02/19 13:12:42;;;;;;;2.63;2.28;;;;;;;;;;4996869;28;20489;-60
2023/02/19 13:15:07;;;;;;;;;;;;;;;;;;4997235;28;20473;-60
2023/02/19 13:17:53;;;;;;;2.20;2.10;;;;;;;;;;4996670;28;19917;-59
2023/02/19 13:20:23;;;;;;;2.40;1.98;;;;;;;;;;4989392;28;20109;-60
2023/02/19 13:26:00;;;;;;;3.35;2.33;;;;;;;;;;4996848;28;20038;-60
2023/02/19 13:28:38;;;;;;;2.80;2.55;;;;;;;;;;4996503;28;20454;-59
2023/02/19 13:31:06;;;;;;;5.75;4.20;;;;;;;;;;4996029;28;20022;-59
2023/02/19 13:33:41;;;;;;;4.93;4.13;;;;;;;;;;4977058;28;20034;-60
2023/02/19 13:36:14;;;;;;;2.30;2.10;;;;;;;;;;4979848;28;20034;-59
2023/02/19 13:38:42;;;;;;;1.92;1.75;;;;;;;;;;4995470;28;20040;-60
2023/02/19 13:41:17;;;;;;;3.13;2.80;;;;;;;;;;4996343;28;20093;-60
2023/02/19 13:43:45;;;;;;;3.53;2.35;;;;;;;;;;4994285;28;20030;-60
2023/02/19 13:46:12;;;;;;;1.98;1.80;;;;;;;;;;4978497;28;20040;-60
2023/02/19 13:48:39;;;;;;;1.85;1.60;;;;;;;;;;4996356;28;20035;-60
2023/02/19 13:51:22;;;;;;;1.92;1.75;;;;;;;;;;4986961;28;20054;-59
2023/02/19 13:53:52;;;;;;;1.60;1.45;;;;;;;;;;4976455;28;20047;-60
2023/02/19 13:56:31;;;;;;;1.48;1.38;;;;;;;;;;4959300;28;20114;-59
2023/02/19 13:59:15;;;;;;;2.05;1.50;;;;;;;;;;4976561;28;20038;-60
2023/02/19 14:01:40;;;;;;;2.03;1.83;;;;;;;;;;4980511;28;20121;-66
2023/02/19 14:04:07;;;;;;;2.78;1.80;;;;;;;;;;4996290;28;20437;-66
2023/02/19 14:06:58;;;;;;;2.63;2.05;;;;;;;;;;4995589;28;20030;-71
2023/02/19 14:09:33;;;;;;;2.80;2.50;;;;;;;;;;4995364;28;20066;-66
2023/02/19 14:12:05;;;;;;;2.60;2.40;;;;;;;;;;4992838;28;20382;-65
2023/02/19 14:14:35;;;;;;;3.25;2.38;;;;;;;;;;4995117;28;20034;-66
2023/02/19 14:17:04;;;;;;;2.47;2.28;;;;;;;;;;4995055;28;20081;-66
2023/02/19 14:19:45;;;;;;;2.83;2.33;;;;;;;;;;4994904;28;20061;-66
2023/02/19 14:22:29;;;;;;;2.47;2.28;;;;;;;;;;4975225;28;20034;-66
2023/02/19 14:24:56;;;;;;;2.72;2.45;;;;;;;;;;4975413;28;20031;-65
2023/02/19 14:27:21;;;;;;;3.75;2.70;;;;;;;;;;4975655;28;20106;-66
2023/02/19 14:29:47;;;;;;;2.58;2.38;;;;;;;;;;4980230;28;20425;-66
2023/02/19 14:32:17;;;;;;;3.10;2.42;;;;;;;;;;4994918;28;20010;-65
2023/02/19 14:34:43;;;;;;;;;;;;;;;;;;4977353;28;20118;-65
2023/02/19 14:37:14;;;;;;;2.40;2.20;;;;;;;;;;4993896;28;20000;-65
2023/02/19 14:39:39;;;;;;;3.53;2.50;;;;;;;;;;4994435;28;20041;-65
2023/02/19 14:42:14;;;;;;;8.48;5.35;;;;;;;;;;4994752;28;20030;-65
2023/02/19 14:44:59;;;;;;;5.60;4.00;;;;;;;;;;4994444;28;20525;-65
2023/02/19 14:47:26;;;;;;;4.32;3.40;;;;;;;;;;4993667;28;20062;-65
2023/02/19 14:50:06;;;;;;;3.28;2.72;;;;;;;;;;4994557;28;20078;-65
2023/02/19 14:52:42;;;;;;;2.78;2.50;;;;;;;;;;4975906;28;20455;-65
2023/02/19 14:55:19;;;;;;;3.53;2.45;;;;;;;;;;4994483;28;20049;-65
2023/02/19 14:57:46;;;;;;;2.67;2.33;;;;;;;;;;4993851;28;20066;-65
2023/02/19 15:00:23;;;;;;;4.07;2.55;;;;;;;;;;4993744;28;20038;-65
2023/02/19 15:02:49;;;;;;;2.90;2.60;;;;;;;;;;4994169;28;20022;-65
2023/02/19 15:05:16;;;;;;;3.08;2.78;;;;;;;;;;4994003;28;20084;-65
2023/02/19 15:07:41;;;;;;;4.70;2.92;;;;;;;;;;4994030;28;20061;-65
2023/02/19 15:10:08;;;;;;;3.13;2.83;;;;;;;;;;4994220;28;20053;-65
2023/02/19 15:12:37;;;;;;;6.80;4.80;;;;;;;;;;4992575;28;20463;-65
2023/02/19 15:15:04;;;;;;;4.43;3.30;;;;;;;;;;4993845;28;20042;-65
2023/02/19 15:17:33;;;;;;;4.88;2.72;;;;;;;;;;4992928;28;20030;-65
2023/02/19 15:20:01;;;;;;;3.05;2.75;;;;;;;;;;4992695;28;20034;-65